sensor_id;sensor_type;location;lat;lon;timestamp;temperature;humidity
6954;DHT22;3516;47.980;8.808;2023-06-19T04:02:03;18.70;99.90
6954;DHT22;3516;47.980;8.808;2023-06-19T04:04:30;18.70;99.90
6954;DHT22;3516;47.980;8.808;2023-06-19T04:06:56;18.60;99.90
6954;DHT22;3516;47.980;8.808;2023-06-19T04:09:24;18.60;99.90
6954;DHT22;3516;47.980;8.808;2023-06-19T04:11:51;18.60;99.90
6954;DHT22;3516;47.980;8.808;2023-06-19T04:14:18;18.60;99.90
6954;DHT22;3516;47.980;8.808;2023-06-19T04:16:44;18.60;99.90
6954;DHT22;3516;47.980;8.808;2023-06-19T04:19:12;18.60;99.90
6954;DHT22;3516;47.980;8.808;2023-06-19T04:21:40;18.60;99.90
6954;DHT22;3516;47.980;8.808;2023-06-19T04:24:06;18.60;99.90
6954;DHT22;3516;47.980;8.808;2023-06-19T04:26:34;18.70;99.90
6954;DHT22;3516;47.980;8.808;2023-06-19T04:29:02;18.70;99.90
6954;DHT22;3516;47.980;8.808;2023-06-19T04:31:28;18.70;99.90
6954;DHT22;3516;47.980;8.808;2023-06-19T04:33:56;18.80;99.90
6954;DHT22;3516;47.980;8.808;2023-06-19T04:36:24;18.90;99.90
6954;DHT22;3516;47.980;8.808;2023-06-19T04:38:51;19.00;99.90
6954;DHT22;3516;47.980;8.808;2023-06-19T04:41:17;19.10;99.90
6954;DHT22;3516;47.980;8.808;2023-06-19T04:43:44;19.10;99.90
6954;DHT22;3516;47.980;8.808;2023-06-19T04:46:11;19.10;99.90
6954;DHT22;3516;47.980;8.808;2023-06-19T04:48:37;19.10;99.90
6954;DHT22;3516;47.980;8.808;2023-06-19T04:51:05;19.10;99.90
6954;DHT22;3516;47.980;8.808;2023-06-19T04:53:33;19.10;99.90
6954;DHT22;3516;47.980;8.808;2023-06-19T04:55:59;19.10;99.90
6954;DHT22;3516;47.980;8.808;2023-06-19T04:58:26;19.00;99.90
6954;DHT22;3516;47.980;8.808;2023-06-19T05:00:53;19.00;99.90
6954;DHT22;3516;47.980;8.808;2023-06-19T05:03:20;19.00;99.90
6954;DHT22;3516;47.980;8.808;2023-06-19T05:05:47;19.10;99.90
6954;DHT22;3516;47.980;8.808;2023-06-19T05:08:14;19.10;99.90
6954;DHT22;3516;47.980;8.808;2023-06-19T05:10:42;19.20;99.90
6954;DHT22;3516;47.980;8.808;2023-06-19T09:59:54;28.50;49.20
6954;DHT22;3516;47.980;8.808;2023-06-19T10:02:22;28.60;48.20
6954;DHT22;3516;47.980;8.808;2023-06-19T10:04:51;28.50;48.40
6954;DHT22;3516;47.980;8.808;2023-06-19T10:07:19;28.50;49.40
6954;DHT22;3516;47.980;8.808;2023-06-19T10:09:59;28.60;50.40
6954;DHT22;3516;47.980;8.808;2023-06-19T10:12:37;28.60;47.50
6954;DHT22;3516;47.980;8.808;2023-06-19T10:15:17;28.60;49.30
6954;DHT22;3516;47.980;8.808;2023-06-19T10:17:46;28.50;49.10
6954;DHT22;3516;47.980;8.808;2023-06-19T10:20:22;28.50;48.70
6954;DHT22;3516;47.980;8.808;2023-06-19T10:22:55;28.60;48.80
6954;DHT22;3516;47.980;8.808;2023-06-19T10:25:23;28.80;48.30
6954;DHT22;3516;47.980;8.808;2023-06-19T10:27:50;29.00;47.70
6954;DHT22;3516;47.980;8.808;2023-06-19T10:30:20;28.90;45.80
6954;DHT22;3516;47.980;8.808;2023-06-19T10:32:48;28.70;47.20
6954;DHT22;3516;47.980;8.808;2023-06-19T10:35:16;28.80;47.80
6954;DHT22;3516;47.980;8.808;2023-06-19T10:37:47;28.80;47.20
6954;DHT22;3516;47.980;8.808;2023-06-19T10:40:14;29.00;46.50
6954;DHT22;3516;47.980;8.808;2023-06-19T10:42:41;29.10;46.50
6954;DHT22;3516;47.980;8.808;2023-06-19T10:45:09;29.20;44.30
6954;DHT22;3516;47.980;8.808;2023-06-19T10:47:39;29.20;45.20
6954;DHT22;3516;47.980;8.808;2023-06-19T10:50:10;29.20;45.10
6954;DHT22;3516;47.980;8.808;2023-06-19T10:52:39;29.10;43.90
6954;DHT22;3516;47.980;8.808;2023-06-19T10:55:07;28.90;44.70
6954;DHT22;3516;47.980;8.808;2023-06-19T10:57:34;28.80;46.30
6954;DHT22;3516;47.980;8.808;2023-06-19T11:00:00;29.00;46.10
6954;DHT22;3516;47.980;8.808;2023-06-19T11:02:32;29.10;45.30
6954;DHT22;3516;47.980;8.808;2023-06-19T11:05:02;29.30;45.30
6954;DHT22;3516;47.980;8.808;2023-06-19T11:07:32;29.40;44.00
6954;DHT22;3516;47.980;8.808;2023-06-19T11:09:58;29.30;44.30
6954;DHT22;3516;47.980;8.808;2023-06-19T11:12:25;29.20;43.90
6954;DHT22;3516;47.980;8.808;2023-06-19T11:14:52;29.20;44.70
6954;DHT22;3516;47.980;8.808;2023-06-19T11:17:18;29.30;44.50
6954;DHT22;3516;47.980;8.808;2023-06-19T11:19:47;29.50;44.10
6954;DHT22;3516;47.980;8.808;2023-06-19T11:22:15;29.60;44.10
6954;DHT22;3516;47.980;8.808;2023-06-19T11:24:45;29.60;43.00
6954;DHT22;3516;47.980;8.808;2023-06-19T11:27:20;29.70;41.80
6954;DHT22;3516;47.980;8.808;2023-06-19T11:29:55;29.60;41.90
6954;DHT22;3516;47.980;8.808;2023-06-19T11:32:29;29.70;42.80
6954;DHT22;3516;47.980;8.808;2023-06-19T11:34:56;29.60;42.10
6954;DHT22;3516;47.980;8.808;2023-06-19T11:37:25;29.60;42.80
6954;DHT22;3516;47.980;8.808;2023-06-19T11:39:57;29.50;42.30
6954;DHT22;3516;47.980;8.808;2023-06-19T11:42:23;29.60;43.10
6954;DHT22;3516;47.980;8.808;2023-06-19T11:44:54;29.70;42.70
6954;DHT22;3516;47.980;8.808;2023-06-19T11:47:20;29.80;41.10
6954;DHT22;3516;47.980;8.808;2023-06-19T11:49:48;29.80;41.60
6954;DHT22;3516;47.980;8.808;2023-06-19T11:52:15;29.80;40.70
6954;DHT22;3516;47.980;8.808;2023-06-19T11:54:43;29.60;42.30
6954;DHT22;3516;47.980;8.808;2023-06-19T11:57:10;29.50;42.60
6954;DHT22;3516;47.980;8.808;2023-06-19T11:59:38;29.30;42.30
6954;DHT22;3516;47.980;8.808;2023-06-19T12:02:05;29.20;43.50
6954;DHT22;3516;47.980;8.808;2023-06-19T12:04:32;29.20;42.40
6954;DHT22;3516;47.980;8.808;2023-06-19T12:06:59;29.30;42.70
6954;DHT22;3516;47.980;8.808;2023-06-19T12:09:26;29.40;42.60
6954;DHT22;3516;47.980;8.808;2023-06-19T12:11:54;29.60;42.20
6954;DHT22;3516;47.980;8.808;2023-06-19T12:14:21;29.70;41.90
6954;DHT22;3516;47.980;8.808;2023-06-19T12:16:50;29.90;41.20
6954;DHT22;3516;47.980;8.808;2023-06-19T12:19:17;29.90;40.40
6954;DHT22;3516;47.980;8.808;2023-06-19T12:21:44;29.80;39.40
6954;DHT22;3516;47.980;8.808;2023-06-19T12:24:10;29.50;39.30
6954;DHT22;3516;47.980;8.808;2023-06-19T12:26:37;29.40;40.40
6954;DHT22;3516;47.980;8.808;2023-06-19T12:29:06;29.50;40.40
6954;DHT22;3516;47.980;8.808;2023-06-19T12:31:34;29.60;39.90
6954;DHT22;3516;47.980;8.808;2023-06-19T12:34:01;29.70;39.80
6954;DHT22;3516;47.980;8.808;2023-06-19T12:36:28;29.80;39.40
6954;DHT22;3516;47.980;8.808;2023-06-19T12:38:56;29.90;39.20
6954;DHT22;3516;47.980;8.808;2023-06-19T12:41:23;30.20;37.70
6954;DHT22;3516;47.980;8.808;2023-06-19T12:43:50;30.30;37.10
6954;DHT22;3516;47.980;8.808;2023-06-19T12:46:18;30.50;36.70
6954;DHT22;3516;47.980;8.808;2023-06-19T12:48:44;30.30;35.30
6954;DHT22;3516;47.980;8.808;2023-06-19T12:51:16;30.20;37.40
6954;DHT22;3516;47.980;8.808;2023-06-19T12:53:43;30.40;36.90
6954;DHT22;3516;47.980;8.808;2023-06-19T12:56:09;30.60;37.60
6954;DHT22;3516;47.980;8.808;2023-06-19T12:58:36;30.60;36.20
6954;DHT22;3516;47.980;8.808;2023-06-19T13:01:03;30.40;36.70
6954;DHT22;3516;47.980;8.808;2023-06-19T13:03:31;30.30;37.50
6954;DHT22;3516;47.980;8.808;2023-06-19T13:05:57;30.50;37.40
6954;DHT22;3516;47.980;8.808;2023-06-19T13:08:24;30.50;37.70
6954;DHT22;3516;47.980;8.808;2023-06-19T13:10:51;30.60;36.50
6954;DHT22;3516;47.980;8.808;2023-06-19T13:13:18;30.70;36.90
6954;DHT22;3516;47.980;8.808;2023-06-19T13:15:45;30.70;36.10
6954;DHT22;3516;47.980;8.808;2023-06-19T13:18:12;30.80;36.80
6954;DHT22;3516;47.980;8.808;2023-06-19T13:20:40;30.90;36.20
6954;DHT22;3516;47.980;8.808;2023-06-19T13:23:10;31.10;36.50
6954;DHT22;3516;47.980;8.808;2023-06-19T13:25:37;31.20;36.20
6954;DHT22;3516;47.980;8.808;2023-06-19T13:28:04;31.30;35.60
6954;DHT22;3516;47.980;8.808;2023-06-19T13:30:32;31.20;35.50
6954;DHT22;3516;47.980;8.808;2023-06-19T13:32:58;31.10;34.20
6954;DHT22;3516;47.980;8.808;2023-06-19T13:35:25;30.70;34.50
6954;DHT22;3516;47.980;8.808;2023-06-19T13:37:54;30.60;34.40
6954;DHT22;3516;47.980;8.808;2023-06-19T13:40:21;30.30;36.00
6954;DHT22;3516;47.980;8.808;2023-06-19T13:42:48;30.30;36.10
6954;DHT22;3516;47.980;8.808;2023-06-19T13:45:16;30.30;36.10
6954;DHT22;3516;47.980;8.808;2023-06-19T13:47:43;30.50;36.80
6954;DHT22;3516;47.980;8.808;2023-06-19T13:50:10;30.60;36.20
6954;DHT22;3516;47.980;8.808;2023-06-19T13:52:43;30.60;36.00
6954;DHT22;3516;47.980;8.808;2023-06-19T13:55:11;30.70;36.00
6954;DHT22;3516;47.980;8.808;2023-06-19T13:57:39;30.80;35.10
6954;DHT22;3516;47.980;8.808;2023-06-19T14:00:07;30.70;35.20
6954;DHT22;3516;47.980;8.808;2023-06-19T14:02:35;30.80;35.90
6954;DHT22;3516;47.980;8.808;2023-06-19T14:05:02;31.00;36.10
6954;DHT22;3516;47.980;8.808;2023-06-19T14:07:29;31.00;35.30
6954;DHT22;3516;47.980;8.808;2023-06-19T14:09:56;31.10;35.70
6954;DHT22;3516;47.980;8.808;2023-06-19T14:12:24;31.20;36.30
6954;DHT22;3516;47.980;8.808;2023-06-19T14:14:51;31.30;35.60
6954;DHT22;3516;47.980;8.808;2023-06-19T14:17:18;31.30;34.90
6954;DHT22;3516;47.980;8.808;2023-06-19T14:19:45;31.30;35.20
6954;DHT22;3516;47.980;8.808;2023-06-19T14:22:12;31.40;35.10
6954;DHT22;3516;47.980;8.808;2023-06-19T14:24:38;31.50;35.00
6954;DHT22;3516;47.980;8.808;2023-06-19T14:27:06;31.50;35.00
6954;DHT22;3516;47.980;8.808;2023-06-19T14:29:34;31.50;35.50
6954;DHT22;3516;47.980;8.808;2023-06-19T14:32:00;31.60;35.20
6954;DHT22;3516;47.980;8.808;2023-06-19T14:34:28;31.50;35.00
6954;DHT22;3516;47.980;8.808;2023-06-19T14:36:57;31.60;35.90
6954;DHT22;3516;47.980;8.808;2023-06-19T14:39:25;31.60;36.00
6954;DHT22;3516;47.980;8.808;2023-06-19T14:41:52;31.40;35.00
6954;DHT22;3516;47.980;8.808;2023-06-19T14:44:19;31.10;36.00
6954;DHT22;3516;47.980;8.808;2023-06-19T14:46:48;31.10;35.80
6954;DHT22;3516;47.980;8.808;2023-06-19T14:49:15;31.00;36.20
6954;DHT22;3516;47.980;8.808;2023-06-19T14:51:42;31.00;36.40
6954;DHT22;3516;47.980;8.808;2023-06-19T14:54:09;31.00;35.80
6954;DHT22;3516;47.980;8.808;2023-06-19T14:56:36;30.90;35.20
6954;DHT22;3516;47.980;8.808;2023-06-19T14:59:03;30.90;35.90
6954;DHT22;3516;47.980;8.808;2023-06-19T15:01:30;30.90;36.00
6954;DHT22;3516;47.980;8.808;2023-06-19T15:03:58;30.70;35.90
6954;DHT22;3516;47.980;8.808;2023-06-19T15:06:25;30.60;36.30
6954;DHT22;3516;47.980;8.808;2023-06-19T15:08:52;30.60;36.50
6954;DHT22;3516;47.980;8.808;2023-06-19T15:11:19;30.60;36.60
6954;DHT22;3516;47.980;8.808;2023-06-19T15:13:45;30.70;36.90
6954;DHT22;3516;47.980;8.808;2023-06-19T15:16:12;30.70;36.60
6954;DHT22;3516;47.980;8.808;2023-06-19T15:18:39;30.70;35.60
6954;DHT22;3516;47.980;8.808;2023-06-19T15:21:08;30.50;35.90
6954;DHT22;3516;47.980;8.808;2023-06-19T15:23:35;30.60;37.00
6954;DHT22;3516;47.980;8.808;2023-06-19T15:26:04;30.50;37.90
6954;DHT22;3516;47.980;8.808;2023-06-19T15:28:32;30.30;37.70
6954;DHT22;3516;47.980;8.808;2023-06-19T15:30:59;30.20;37.50
6954;DHT22;3516;47.980;8.808;2023-06-19T15:33:26;30.20;37.20
6954;DHT22;3516;47.980;8.808;2023-06-19T15:35:53;30.00;37.10
6954;DHT22;3516;47.980;8.808;2023-06-19T15:38:21;30.00;36.70
6954;DHT22;3516;47.980;8.808;2023-06-19T15:40:48;30.00;36.70
6954;DHT22;3516;47.980;8.808;2023-06-19T15:43:14;30.00;37.40
6954;DHT22;3516;47.980;8.808;2023-06-19T15:45:41;30.10;37.10
6954;DHT22;3516;47.980;8.808;2023-06-19T15:48:08;30.20;37.50
6954;DHT22;3516;47.980;8.808;2023-06-19T15:50:34;30.20;36.80
6954;DHT22;3516;47.980;8.808;2023-06-19T15:53:01;30.10;35.60
6954;DHT22;3516;47.980;8.808;2023-06-19T15:55:29;29.90;35.20
6954;DHT22;3516;47.980;8.808;2023-06-19T15:57:56;29.80;36.20
6954;DHT22;3516;47.980;8.808;2023-06-19T16:00:23;29.80;35.80
6954;DHT22;3516;47.980;8.808;2023-06-19T16:02:50;29.70;36.10
6954;DHT22;3516;47.980;8.808;2023-06-19T16:05:17;29.60;36.30
6954;DHT22;3516;47.980;8.808;2023-06-19T16:07:44;29.60;37.10
6954;DHT22;3516;47.980;8.808;2023-06-19T16:10:11;29.70;37.10
6954;DHT22;3516;47.980;8.808;2023-06-19T16:12:39;29.80;36.80
6954;DHT22;3516;47.980;8.808;2023-06-19T16:15:07;30.00;36.30
6954;DHT22;3516;47.980;8.808;2023-06-19T16:17:38;30.10;35.30
6954;DHT22;3516;47.980;8.808;2023-06-19T16:20:06;30.10;35.60
6954;DHT22;3516;47.980;8.808;2023-06-19T16:22:32;30.20;35.60
6954;DHT22;3516;47.980;8.808;2023-06-19T16:24:59;30.20;35.30
6954;DHT22;3516;47.980;8.808;2023-06-19T16:27:26;30.10;35.50
6954;DHT22;3516;47.980;8.808;2023-06-19T16:29:54;30.10;35.30
6954;DHT22;3516;47.980;8.808;2023-06-19T16:32:21;30.00;34.60
6954;DHT22;3516;47.980;8.808;2023-06-19T16:34:48;30.00;35.50
6954;DHT22;3516;47.980;8.808;2023-06-19T16:37:14;30.00;35.30
6954;DHT22;3516;47.980;8.808;2023-06-19T16:39:41;30.00;35.60
6954;DHT22;3516;47.980;8.808;2023-06-19T16:42:08;29.90;34.90
6954;DHT22;3516;47.980;8.808;2023-06-19T16:44:36;29.90;35.30
6954;DHT22;3516;47.980;8.808;2023-06-19T16:47:04;29.70;35.10
6954;DHT22;3516;47.980;8.808;2023-06-19T16:49:31;29.70;35.60
6954;DHT22;3516;47.980;8.808;2023-06-19T16:51:58;29.70;36.00
6954;DHT22;3516;47.980;8.808;2023-06-19T16:54:24;29.60;36.20
6954;DHT22;3516;47.980;8.808;2023-06-19T16:56:51;29.50;36.10
6954;DHT22;3516;47.980;8.808;2023-06-19T16:59:18;29.30;36.40
6954;DHT22;3516;47.980;8.808;2023-06-19T17:01:44;29.20;37.20
6954;DHT22;3516;47.980;8.808;2023-06-19T17:04:13;29.20;37.50
6954;DHT22;3516;47.980;8.808;2023-06-19T17:06:39;29.10;37.90
6954;DHT22;3516;47.980;8.808;2023-06-19T17:09:06;28.90;38.10
6954;DHT22;3516;47.980;8.808;2023-06-19T17:11:33;28.70;38.50
6954;DHT22;3516;47.980;8.808;2023-06-19T17:14:00;28.60;38.70
6954;DHT22;3516;47.980;8.808;2023-06-19T17:16:26;28.60;39.10
6954;DHT22;3516;47.980;8.808;2023-06-19T17:18:53;28.50;39.20
6954;DHT22;3516;47.980;8.808;2023-06-19T17:21:21;28.60;39.60
6954;DHT22;3516;47.980;8.808;2023-06-19T17:23:48;28.60;39.70
6954;DHT22;3516;47.980;8.808;2023-06-19T17:26:14;28.70;39.60
6954;DHT22;3516;47.980;8.808;2023-06-19T17:28:41;28.70;39.90
6954;DHT22;3516;47.980;8.808;2023-06-19T17:31:08;28.70;40.10
6954;DHT22;3516;47.980;8.808;2023-06-19T17:33:34;28.80;40.40
6954;DHT22;3516;47.980;8.808;2023-06-19T17:36:01;28.70;40.70
6954;DHT22;3516;47.980;8.808;2023-06-19T17:38:29;28.60;40.70
6954;DHT22;3516;47.980;8.808;2023-06-19T17:40:56;28.50;41.20
6954;DHT22;3516;47.980;8.808;2023-06-19T17:43:23;28.30;42.90
6954;DHT22;3516;47.980;8.808;2023-06-19T17:45:49;28.10;43.60
6954;DHT22;3516;47.980;8.808;2023-06-19T17:48:16;27.90;44.60
6954;DHT22;3516;47.980;8.808;2023-06-19T17:50:43;27.80;45.60
6954;DHT22;3516;47.980;8.808;2023-06-19T17:53:10;27.60;46.60
6954;DHT22;3516;47.980;8.808;2023-06-19T17:55:38;27.50;47.80
6954;DHT22;3516;47.980;8.808;2023-06-19T17:58:06;27.40;48.50
6954;DHT22;3516;47.980;8.808;2023-06-19T18:00:33;27.30;49.70
6954;DHT22;3516;47.980;8.808;2023-06-19T18:02:59;27.30;50.00
6954;DHT22;3516;47.980;8.808;2023-06-19T18:05:27;27.20;50.60
6954;DHT22;3516;47.980;8.808;2023-06-19T18:07:55;27.20;51.10
6954;DHT22;3516;47.980;8.808;2023-06-19T18:10:21;27.20;51.50
6954;DHT22;3516;47.980;8.808;2023-06-19T18:12:50;27.20;51.40
6954;DHT22;3516;47.980;8.808;2023-06-19T18:15:16;27.10;52.20
6954;DHT22;3516;47.980;8.808;2023-06-19T18:17:43;27.10;52.50
6954;DHT22;3516;47.980;8.808;2023-06-19T18:20:11;27.10;52.80
6954;DHT22;3516;47.980;8.808;2023-06-19T18:22:38;27.10;52.80
6954;DHT22;3516;47.980;8.808;2023-06-19T18:25:05;27.00;53.40
6954;DHT22;3516;47.980;8.808;2023-06-19T18:27:32;26.90;54.10
6954;DHT22;3516;47.980;8.808;2023-06-19T18:30:00;26.80;54.30
6954;DHT22;3516;47.980;8.808;2023-06-19T18:32:26;26.80;54.60
6954;DHT22;3516;47.980;8.808;2023-06-19T18:34:53;26.60;55.20
6954;DHT22;3516;47.980;8.808;2023-06-19T18:37:20;26.60;55.50
6954;DHT22;3516;47.980;8.808;2023-06-19T18:39:47;26.40;55.90
6954;DHT22;3516;47.980;8.808;2023-06-19T18:42:13;26.30;56.80
6954;DHT22;3516;47.980;8.808;2023-06-19T18:44:40;26.20;57.80
6954;DHT22;3516;47.980;8.808;2023-06-19T18:47:08;26.10;58.80
6954;DHT22;3516;47.980;8.808;2023-06-19T18:49:35;26.00;59.90
6954;DHT22;3516;47.980;8.808;2023-06-19T18:52:02;25.90;61.70
6954;DHT22;3516;47.980;8.808;2023-06-19T18:54:28;25.70;64.10
6954;DHT22;3516;47.980;8.808;2023-06-19T18:56:55;25.60;67.10
6954;DHT22;3516;47.980;8.808;2023-06-19T18:59:22;25.40;69.10
6954;DHT22;3516;47.980;8.808;2023-06-19T19:01:49;25.20;71.00
6954;DHT22;3516;47.980;8.808;2023-06-19T19:04:17;25.10;73.60
6954;DHT22;3516;47.980;8.808;2023-06-19T19:06:43;24.80;76.40
6954;DHT22;3516;47.980;8.808;2023-06-19T19:09:10;24.70;79.00
6954;DHT22;3516;47.980;8.808;2023-06-19T19:11:37;24.50;81.50
6954;DHT22;3516;47.980;8.808;2023-06-19T19:14:03;24.30;83.60
6954;DHT22;3516;47.980;8.808;2023-06-19T19:16:30;24.10;85.60
6954;DHT22;3516;47.980;8.808;2023-06-19T19:18:57;24.00;87.80
6954;DHT22;3516;47.980;8.808;2023-06-19T19:21:25;23.80;90.60
6954;DHT22;3516;47.980;8.808;2023-06-19T19:23:51;23.60;91.60
6954;DHT22;3516;47.980;8.808;2023-06-19T19:26:18;23.50;93.30
6954;DHT22;3516;47.980;8.808;2023-06-19T19:28:45;23.40;94.30
6954;DHT22;3516;47.980;8.808;2023-06-19T19:31:11;23.30;95.60
6954;DHT22;3516;47.980;8.808;2023-06-19T19:33:38;23.20;96.80
6954;DHT22;3516;47.980;8.808;2023-06-19T19:36:05;23.00;98.30
6954;DHT22;3516;47.980;8.808;2023-06-19T19:38:34;22.90;99.70
6954;DHT22;3516;47.980;8.808;2023-06-19T19:41:01;22.80;99.90
6954;DHT22;3516;47.980;8.808;2023-06-19T19:43:27;22.70;99.90
6954;DHT22;3516;47.980;8.808;2023-06-19T19:45:54;22.70;99.90
6954;DHT22;3516;47.980;8.808;2023-06-19T19:48:21;22.60;99.90
6954;DHT22;3516;47.980;8.808;2023-06-19T19:50:48;22.60;99.90
6954;DHT22;3516;47.980;8.808;2023-06-19T19:53:14;22.50;99.90
6954;DHT22;3516;47.980;8.808;2023-06-19T19:55:42;22.50;99.90
6954;DHT22;3516;47.980;8.808;2023-06-19T19:58:09;22.50;99.90
6954;DHT22;3516;47.980;8.808;2023-06-19T20:00:36;22.50;99.90
6954;DHT22;3516;47.980;8.808;2023-06-19T20:03:02;22.60;99.90
6954;DHT22;3516;47.980;8.808;2023-06-19T20:05:29;22.50;99.90
6954;DHT22;3516;47.980;8.808;2023-06-19T20:07:56;22.50;99.90
6954;DHT22;3516;47.980;8.808;2023-06-19T20:10:23;22.50;99.90
6954;DHT22;3516;47.980;8.808;2023-06-19T20:12:51;22.50;99.90
6954;DHT22;3516;47.980;8.808;2023-06-19T20:15:17;22.40;99.90
6954;DHT22;3516;47.980;8.808;2023-06-19T20:17:44;22.40;99.90
6954;DHT22;3516;47.980;8.808;2023-06-19T20:20:11;22.30;99.90
6954;DHT22;3516;47.980;8.808;2023-06-19T20:22:38;22.20;99.90
6954;DHT22;3516;47.980;8.808;2023-06-19T20:25:05;22.20;99.90
6954;DHT22;3516;47.980;8.808;2023-06-19T20:27:32;22.20;99.90
6954;DHT22;3516;47.980;8.808;2023-06-19T20:30:00;22.20;99.90
6954;DHT22;3516;47.980;8.808;2023-06-19T20:32:27;22.10;99.90
6954;DHT22;3516;47.980;8.808;2023-06-19T20:34:54;22.10;99.90
6954;DHT22;3516;47.980;8.808;2023-06-19T20:37:20;22.00;99.90
6954;DHT22;3516;47.980;8.808;2023-06-19T20:39:47;22.00;99.90
6954;DHT22;3516;47.980;8.808;2023-06-19T20:42:14;22.00;99.90
6954;DHT22;3516;47.980;8.808;2023-06-19T20:44:43;21.90;99.90
6954;DHT22;3516;47.980;8.808;2023-06-19T20:47:11;21.90;99.90
6954;DHT22;3516;47.980;8.808;2023-06-19T20:49:38;21.90;99.90
6954;DHT22;3516;47.980;8.808;2023-06-19T20:52:05;21.80;99.90
6954;DHT22;3516;47.980;8.808;2023-06-19T20:54:32;21.80;99.90
6954;DHT22;3516;47.980;8.808;2023-06-19T20:56:59;21.80;99.90
6954;DHT22;3516;47.980;8.808;2023-06-19T20:59:25;21.70;99.90
6954;DHT22;3516;47.980;8.808;2023-06-19T21:01:52;21.70;99.90
6954;DHT22;3516;47.980;8.808;2023-06-19T21:04:22;21.70;99.90
6954;DHT22;3516;47.980;8.808;2023-06-19T21:06:49;21.60;99.90
6954;DHT22;3516;47.980;8.808;2023-06-19T21:09:16;21.50;99.90
6954;DHT22;3516;47.980;8.808;2023-06-19T21:11:44;21.30;99.90
6954;DHT22;3516;47.980;8.808;2023-06-19T21:14:11;21.20;99.90
6954;DHT22;3516;47.980;8.808;2023-06-19T21:16:37;21.10;99.90
6954;DHT22;3516;47.980;8.808;2023-06-19T21:19:04;21.00;99.90
